sensor_id;sensor_type;location;lat;lon;timestamp;temperature;humidity
53776;DHT22;44276;49.534;6.378;2023-12-28T00:00:43;8.20;85.80
53776;DHT22;44276;49.534;6.378;2023-12-28T00:03:11;8.20;84.60
53776;DHT22;44276;49.534;6.378;2023-12-28T00:05:39;8.20;83.70
53776;DHT22;44276;49.534;6.378;2023-12-28T00:08:07;8.20;90.90
53776;DHT22;44276;49.534;6.378;2023-12-28T00:10:36;7.90;99.90
53776;DHT22;44276;49.534;6.378;2023-12-28T00:13:05;7.70;99.90
53776;DHT22;44276;49.534;6.378;2023-12-28T00:15:34;7.60;99.90
53776;DHT22;44276;49.534;6.378;2023-12-28T00:18:02;7.60;99.90
53776;DHT22;44276;49.534;6.378;2023-12-28T00:20:31;7.60;99.90
53776;DHT22;44276;49.534;6.378;2023-12-28T00:22:59;7.70;99.90
53776;DHT22;44276;49.534;6.378;2023-12-28T00:25:27;7.90;99.90
53776;DHT22;44276;49.534;6.378;2023-12-28T00:27:55;7.90;99.90
53776;DHT22;44276;49.534;6.378;2023-12-28T00:30:25;8.10;99.90
53776;DHT22;44276;49.534;6.378;2023-12-28T00:32:53;8.20;99.90
53776;DHT22;44276;49.534;6.378;2023-12-28T00:35:21;8.20;98.50
53776;DHT22;44276;49.534;6.378;2023-12-28T00:37:49;8.30;94.80
53776;DHT22;44276;49.534;6.378;2023-12-28T00:40:18;8.30;94.00
53776;DHT22;44276;49.534;6.378;2023-12-28T00:42:46;8.30;94.20
53776;DHT22;44276;49.534;6.378;2023-12-28T00:45:14;8.30;99.90
53776;DHT22;44276;49.534;6.378;2023-12-28T00:47:44;8.30;99.90
53776;DHT22;44276;49.534;6.378;2023-12-28T00:50:12;8.30;99.90
53776;DHT22;44276;49.534;6.378;2023-12-28T00:52:41;7.90;99.90
53776;DHT22;44276;49.534;6.378;2023-12-28T00:55:10;7.70;99.90
53776;DHT22;44276;49.534;6.378;2023-12-28T00:57:38;7.70;99.90
53776;DHT22;44276;49.534;6.378;2023-12-28T01:00:08;7.60;99.90
53776;DHT22;44276;49.534;6.378;2023-12-28T01:02:37;7.60;99.90
53776;DHT22;44276;49.534;6.378;2023-12-28T01:05:07;7.60;99.90
53776;DHT22;44276;49.534;6.378;2023-12-28T01:07:35;7.60;99.90
53776;DHT22;44276;49.534;6.378;2023-12-28T01:10:04;7.50;99.90
53776;DHT22;44276;49.534;6.378;2023-12-28T01:12:33;7.60;99.90
53776;DHT22;44276;49.534;6.378;2023-12-28T01:15:00;7.60;99.90
53776;DHT22;44276;49.534;6.378;2023-12-28T01:17:28;7.50;99.90
53776;DHT22;44276;49.534;6.378;2023-12-28T01:19:56;7.50;99.90
53776;DHT22;44276;49.534;6.378;2023-12-28T01:22:26;7.40;99.90
53776;DHT22;44276;49.534;6.378;2023-12-28T01:24:54;7.30;99.90
53776;DHT22;44276;49.534;6.378;2023-12-28T01:27:22;7.30;99.90
53776;DHT22;44276;49.534;6.378;2023-12-28T01:29:50;7.40;99.90
53776;DHT22;44276;49.534;6.378;2023-12-28T01:32:18;7.20;99.90
53776;DHT22;44276;49.534;6.378;2023-12-28T01:34:46;7.30;99.90
53776;DHT22;44276;49.534;6.378;2023-12-28T01:37:14;7.30;99.90
53776;DHT22;44276;49.534;6.378;2023-12-28T01:39:44;7.30;99.90
53776;DHT22;44276;49.534;6.378;2023-12-28T01:42:12;7.20;99.90
53776;DHT22;44276;49.534;6.378;2023-12-28T01:44:40;7.30;99.90
53776;DHT22;44276;49.534;6.378;2023-12-28T01:47:08;7.20;99.90
53776;DHT22;44276;49.534;6.378;2023-12-28T01:49:37;7.20;99.90
53776;DHT22;44276;49.534;6.378;2023-12-28T01:52:06;7.20;99.90
53776;DHT22;44276;49.534;6.378;2023-12-28T01:54:35;7.20;99.90
53776;DHT22;44276;49.534;6.378;2023-12-28T01:57:07;7.20;99.90
53776;DHT22;44276;49.534;6.378;2023-12-28T01:59:36;7.20;99.90
53776;DHT22;44276;49.534;6.378;2023-12-28T02:02:04;7.20;99.90
53776;DHT22;44276;49.534;6.378;2023-12-28T02:04:33;7.20;99.90
53776;DHT22;44276;49.534;6.378;2023-12-28T02:07:02;7.20;99.90
53776;DHT22;44276;49.534;6.378;2023-12-28T02:09:30;7.20;99.90
53776;DHT22;44276;49.534;6.378;2023-12-28T02:11:59;7.30;99.90
53776;DHT22;44276;49.534;6.378;2023-12-28T02:14:28;7.30;99.90
53776;DHT22;44276;49.534;6.378;2023-12-28T02:17:02;7.30;99.90
53776;DHT22;44276;49.534;6.378;2023-12-28T02:19:42;7.40;99.90
53776;DHT22;44276;49.534;6.378;2023-12-28T02:22:15;7.40;99.90
53776;DHT22;44276;49.534;6.378;2023-12-28T02:25:06;7.40;99.90
53776;DHT22;44276;49.534;6.378;2023-12-28T02:27:36;7.50;99.90
53776;DHT22;44276;49.534;6.378;2023-12-28T02:30:09;7.50;99.90
53776;DHT22;44276;49.534;6.378;2023-12-28T02:32:46;7.50;99.90
53776;DHT22;44276;49.534;6.378;2023-12-28T02:35:23;7.50;99.90
53776;DHT22;44276;49.534;6.378;2023-12-28T02:37:55;7.50;99.90
53776;DHT22;44276;49.534;6.378;2023-12-28T02:40:29;7.50;99.90
53776;DHT22;44276;49.534;6.378;2023-12-28T02:43:02;7.50;99.90
53776;DHT22;44276;49.534;6.378;2023-12-28T02:45:31;7.50;99.90
53776;DHT22;44276;49.534;6.378;2023-12-28T02:47:59;7.50;99.90
53776;DHT22;44276;49.534;6.378;2023-12-28T02:50:28;7.50;99.90
53776;DHT22;44276;49.534;6.378;2023-12-28T02:52:57;7.50;99.90
53776;DHT22;44276;49.534;6.378;2023-12-28T02:55:25;7.50;99.90
53776;DHT22;44276;49.534;6.378;2023-12-28T02:57:56;7.50;99.90
53776;DHT22;44276;49.534;6.378;2023-12-28T03:00:28;7.60;99.90
53776;DHT22;44276;49.534;6.378;2023-12-28T03:02:57;7.60;99.90
53776;DHT22;44276;49.534;6.378;2023-12-28T03:05:25;7.60;99.90
53776;DHT22;44276;49.534;6.378;2023-12-28T03:07:53;7.60;99.90
53776;DHT22;44276;49.534;6.378;2023-12-28T03:10:22;7.60;99.90
53776;DHT22;44276;49.534;6.378;2023-12-28T03:12:50;7.60;99.90
53776;DHT22;44276;49.534;6.378;2023-12-28T03:15:20;7.60;99.90
53776;DHT22;44276;49.534;6.378;2023-12-28T03:17:48;7.60;99.90
53776;DHT22;44276;49.534;6.378;2023-12-28T03:20:16;7.60;99.90
53776;DHT22;44276;49.534;6.378;2023-12-28T03:22:45;7.70;99.90
53776;DHT22;44276;49.534;6.378;2023-12-28T03:25:14;7.70;99.90
53776;DHT22;44276;49.534;6.378;2023-12-28T03:27:42;7.70;99.90
53776;DHT22;44276;49.534;6.378;2023-12-28T03:30:11;7.80;99.90
53776;DHT22;44276;49.534;6.378;2023-12-28T03:32:40;7.80;99.90
53776;DHT22;44276;49.534;6.378;2023-12-28T03:35:09;7.80;99.90
53776;DHT22;44276;49.534;6.378;2023-12-28T03:37:37;7.80;99.90
53776;DHT22;44276;49.534;6.378;2023-12-28T03:40:06;7.90;99.90
53776;DHT22;44276;49.534;6.378;2023-12-28T03:42:35;7.90;99.90
53776;DHT22;44276;49.534;6.378;2023-12-28T03:45:03;7.90;99.90
53776;DHT22;44276;49.534;6.378;2023-12-28T03:47:32;8.00;99.90
53776;DHT22;44276;49.534;6.378;2023-12-28T03:50:01;8.00;99.90
53776;DHT22;44276;49.534;6.378;2023-12-28T03:52:30;8.00;99.90
53776;DHT22;44276;49.534;6.378;2023-12-28T03:54:58;8.00;99.90
53776;DHT22;44276;49.534;6.378;2023-12-28T03:57:26;8.10;99.90
53776;DHT22;44276;49.534;6.378;2023-12-28T03:59:55;8.10;99.90
53776;DHT22;44276;49.534;6.378;2023-12-28T04:02:23;8.10;99.90
53776;DHT22;44276;49.534;6.378;2023-12-28T04:04:54;8.10;99.90
53776;DHT22;44276;49.534;6.378;2023-12-28T04:07:25;8.10;99.90
53776;DHT22;44276;49.534;6.378;2023-12-28T04:09:54;8.10;99.90
53776;DHT22;44276;49.534;6.378;2023-12-28T04:12:23;8.10;99.90
53776;DHT22;44276;49.534;6.378;2023-12-28T04:14:51;8.20;99.90
53776;DHT22;44276;49.534;6.378;2023-12-28T04:17:19;8.20;99.90
53776;DHT22;44276;49.534;6.378;2023-12-28T04:19:47;8.20;99.90
53776;DHT22;44276;49.534;6.378;2023-12-28T04:22:15;8.30;99.90
53776;DHT22;44276;49.534;6.378;2023-12-28T04:24:45;8.30;99.90
53776;DHT22;44276;49.534;6.378;2023-12-28T04:27:13;8.30;99.90
53776;DHT22;44276;49.534;6.378;2023-12-28T04:29:41;8.30;99.90
53776;DHT22;44276;49.534;6.378;2023-12-28T04:32:09;8.40;99.90
53776;DHT22;44276;49.534;6.378;2023-12-28T04:34:38;8.40;99.90
53776;DHT22;44276;49.534;6.378;2023-12-28T04:37:06;8.40;99.90
53776;DHT22;44276;49.534;6.378;2023-12-28T04:39:34;8.40;99.90
53776;DHT22;44276;49.534;6.378;2023-12-28T04:42:04;8.40;99.90
53776;DHT22;44276;49.534;6.378;2023-12-28T04:44:32;8.40;99.90
53776;DHT22;44276;49.534;6.378;2023-12-28T04:47:05;8.40;99.90
53776;DHT22;44276;49.534;6.378;2023-12-28T04:49:33;8.50;99.90
53776;DHT22;44276;49.534;6.378;2023-12-28T04:52:01;8.50;99.90
53776;DHT22;44276;49.534;6.378;2023-12-28T04:54:30;8.50;99.90
53776;DHT22;44276;49.534;6.378;2023-12-28T04:56:59;8.50;99.90
53776;DHT22;44276;49.534;6.378;2023-12-28T04:59:29;8.50;99.90
53776;DHT22;44276;49.534;6.378;2023-12-28T05:01:57;8.60;99.90
53776;DHT22;44276;49.534;6.378;2023-12-28T05:04:25;8.60;99.90
53776;DHT22;44276;49.534;6.378;2023-12-28T05:06:53;8.50;99.90
53776;DHT22;44276;49.534;6.378;2023-12-28T05:09:21;8.60;99.90
53776;DHT22;44276;49.534;6.378;2023-12-28T05:11:49;8.60;99.90
53776;DHT22;44276;49.534;6.378;2023-12-28T05:14:17;8.60;99.90
53776;DHT22;44276;49.534;6.378;2023-12-28T05:16:47;8.60;99.90
53776;DHT22;44276;49.534;6.378;2023-12-28T05:19:16;8.70;99.90
53776;DHT22;44276;49.534;6.378;2023-12-28T05:21:45;8.70;99.90
53776;DHT22;44276;49.534;6.378;2023-12-28T05:24:13;8.70;99.90
53776;DHT22;44276;49.534;6.378;2023-12-28T05:26:42;8.70;99.90
53776;DHT22;44276;49.534;6.378;2023-12-28T05:29:10;8.70;99.90
53776;DHT22;44276;49.534;6.378;2023-12-28T05:31:38;8.80;99.90
53776;DHT22;44276;49.534;6.378;2023-12-28T05:34:07;8.80;99.90
53776;DHT22;44276;49.534;6.378;2023-12-28T05:36:37;8.80;99.90
53776;DHT22;44276;49.534;6.378;2023-12-28T05:39:07;8.80;99.90
53776;DHT22;44276;49.534;6.378;2023-12-28T05:41:36;8.90;99.90
53776;DHT22;44276;49.534;6.378;2023-12-28T05:44:04;8.90;99.90
53776;DHT22;44276;49.534;6.378;2023-12-28T05:46:32;8.90;99.90
53776;DHT22;44276;49.534;6.378;2023-12-28T05:48:59;9.00;99.90
53776;DHT22;44276;49.534;6.378;2023-12-28T05:51:29;9.00;99.90
53776;DHT22;44276;49.534;6.378;2023-12-28T05:53:57;9.10;99.90
53776;DHT22;44276;49.534;6.378;2023-12-28T05:56:25;9.10;99.90
53776;DHT22;44276;49.534;6.378;2023-12-28T05:58:53;9.10;99.90
53776;DHT22;44276;49.534;6.378;2023-12-28T06:01:21;9.10;99.90
53776;DHT22;44276;49.534;6.378;2023-12-28T06:03:50;9.10;99.90
53776;DHT22;44276;49.534;6.378;2023-12-28T06:06:19;9.10;99.90
53776;DHT22;44276;49.534;6.378;2023-12-28T06:08:49;9.20;99.90
53776;DHT22;44276;49.534;6.378;2023-12-28T06:11:18;9.20;99.90
53776;DHT22;44276;49.534;6.378;2023-12-28T06:13:46;9.20;99.90
53776;DHT22;44276;49.534;6.378;2023-12-28T06:16:14;9.20;99.90
53776;DHT22;44276;49.534;6.378;2023-12-28T06:18:42;9.20;99.90
53776;DHT22;44276;49.534;6.378;2023-12-28T06:21:10;9.20;99.90
53776;DHT22;44276;49.534;6.378;2023-12-28T06:23:39;9.20;99.90
53776;DHT22;44276;49.534;6.378;2023-12-28T06:26:08;9.30;99.90
53776;DHT22;44276;49.534;6.378;2023-12-28T06:28:36;9.30;99.90
53776;DHT22;44276;49.534;6.378;2023-12-28T06:31:04;9.30;99.90
53776;DHT22;44276;49.534;6.378;2023-12-28T06:33:33;9.30;99.90
53776;DHT22;44276;49.534;6.378;2023-12-28T06:36:05;9.40;99.90
53776;DHT22;44276;49.534;6.378;2023-12-28T06:38:33;9.30;99.90
53776;DHT22;44276;49.534;6.378;2023-12-28T06:41:02;9.30;99.90
53776;DHT22;44276;49.534;6.378;2023-12-28T06:43:31;9.20;99.90
53776;DHT22;44276;49.534;6.378;2023-12-28T06:45:59;9.30;99.90
53776;DHT22;44276;49.534;6.378;2023-12-28T06:48:28;9.30;99.90
53776;DHT22;44276;49.534;6.378;2023-12-28T06:50:56;9.20;99.90
53776;DHT22;44276;49.534;6.378;2023-12-28T06:53:24;9.30;99.90
53776;DHT22;44276;49.534;6.378;2023-12-28T06:55:52;9.30;99.90
53776;DHT22;44276;49.534;6.378;2023-12-28T06:58:20;9.30;99.90
53776;DHT22;44276;49.534;6.378;2023-12-28T07:00:50;9.30;99.90
53776;DHT22;44276;49.534;6.378;2023-12-28T07:03:20;9.30;99.90
53776;DHT22;44276;49.534;6.378;2023-12-28T07:05:48;9.30;99.90
53776;DHT22;44276;49.534;6.378;2023-12-28T07:08:17;9.30;99.90
53776;DHT22;44276;49.534;6.378;2023-12-28T07:10:45;9.30;99.90
53776;DHT22;44276;49.534;6.378;2023-12-28T07:13:13;9.30;99.90
53776;DHT22;44276;49.534;6.378;2023-12-28T07:15:41;9.30;99.90
53776;DHT22;44276;49.534;6.378;2023-12-28T07:18:10;9.30;99.90
53776;DHT22;44276;49.534;6.378;2023-12-28T07:20:39;9.30;99.90
53776;DHT22;44276;49.534;6.378;2023-12-28T07:23:07;9.30;99.90
53776;DHT22;44276;49.534;6.378;2023-12-28T07:25:35;9.20;99.90
53776;DHT22;44276;49.534;6.378;2023-12-28T07:28:04;9.10;99.90
53776;DHT22;44276;49.534;6.378;2023-12-28T07:30:32;9.20;99.90
53776;DHT22;44276;49.534;6.378;2023-12-28T07:33:01;9.10;99.90
53776;DHT22;44276;49.534;6.378;2023-12-28T07:35:30;9.10;99.90
53776;DHT22;44276;49.534;6.378;2023-12-28T07:37:58;9.10;99.90
53776;DHT22;44276;49.534;6.378;2023-12-28T07:40:27;9.10;99.90
53776;DHT22;44276;49.534;6.378;2023-12-28T07:42:55;9.00;99.90
53776;DHT22;44276;49.534;6.378;2023-12-28T07:45:24;9.00;99.90
53776;DHT22;44276;49.534;6.378;2023-12-28T07:47:52;8.90;99.90
53776;DHT22;44276;49.534;6.378;2023-12-28T07:50:21;8.90;99.90
53776;DHT22;44276;49.534;6.378;2023-12-28T07:52:50;8.90;99.90
53776;DHT22;44276;49.534;6.378;2023-12-28T07:55:19;8.90;99.90
53776;DHT22;44276;49.534;6.378;2023-12-28T07:57:47;8.90;99.90
53776;DHT22;44276;49.534;6.378;2023-12-28T08:00:16;8.90;99.90
53776;DHT22;44276;49.534;6.378;2023-12-28T08:02:44;8.90;99.90
53776;DHT22;44276;49.534;6.378;2023-12-28T08:05:12;8.90;99.90
53776;DHT22;44276;49.534;6.378;2023-12-28T08:07:40;8.90;99.90
53776;DHT22;44276;49.534;6.378;2023-12-28T08:10:10;8.90;99.90
53776;DHT22;44276;49.534;6.378;2023-12-28T08:12:38;8.80;99.90
53776;DHT22;44276;49.534;6.378;2023-12-28T08:15:08;8.80;99.90
53776;DHT22;44276;49.534;6.378;2023-12-28T08:17:36;9.00;99.90
53776;DHT22;44276;49.534;6.378;2023-12-28T08:20:06;9.10;99.90
53776;DHT22;44276;49.534;6.378;2023-12-28T08:22:35;9.10;99.90
53776;DHT22;44276;49.534;6.378;2023-12-28T08:25:03;9.20;99.90
53776;DHT22;44276;49.534;6.378;2023-12-28T08:27:35;9.40;99.90
53776;DHT22;44276;49.534;6.378;2023-12-28T08:30:04;9.50;99.90
53776;DHT22;44276;49.534;6.378;2023-12-28T08:32:33;9.50;99.90
53776;DHT22;44276;49.534;6.378;2023-12-28T08:35:02;9.50;99.90
53776;DHT22;44276;49.534;6.378;2023-12-28T08:37:30;9.50;99.90
53776;DHT22;44276;49.534;6.378;2023-12-28T08:39:58;9.60;99.90
53776;DHT22;44276;49.534;6.378;2023-12-28T08:42:27;9.60;99.90
53776;DHT22;44276;49.534;6.378;2023-12-28T08:44:56;9.60;99.90
53776;DHT22;44276;49.534;6.378;2023-12-28T08:47:24;9.70;99.90
53776;DHT22;44276;49.534;6.378;2023-12-28T08:49:52;9.70;99.90
53776;DHT22;44276;49.534;6.378;2023-12-28T08:52:22;9.80;99.90
53776;DHT22;44276;49.534;6.378;2023-12-28T08:54:50;9.90;99.90
53776;DHT22;44276;49.534;6.378;2023-12-28T08:57:18;9.90;99.90
53776;DHT22;44276;49.534;6.378;2023-12-28T09:00:08;9.90;99.90
53776;DHT22;44276;49.534;6.378;2023-12-28T09:02:37;10.00;99.90
53776;DHT22;44276;49.534;6.378;2023-12-28T09:05:05;10.10;99.90
53776;DHT22;44276;49.534;6.378;2023-12-28T09:07:34;10.10;99.90
53776;DHT22;44276;49.534;6.378;2023-12-28T09:10:05;10.10;99.90
53776;DHT22;44276;49.534;6.378;2023-12-28T09:12:34;10.00;99.90
53776;DHT22;44276;49.534;6.378;2023-12-28T09:15:03;10.00;99.90
53776;DHT22;44276;49.534;6.378;2023-12-28T09:17:33;9.90;99.90
53776;DHT22;44276;49.534;6.378;2023-12-28T09:20:02;9.90;99.90
53776;DHT22;44276;49.534;6.378;2023-12-28T09:22:33;9.80;99.90
53776;DHT22;44276;49.534;6.378;2023-12-28T09:25:01;9.80;99.90
53776;DHT22;44276;49.534;6.378;2023-12-28T09:27:29;9.80;99.90
53776;DHT22;44276;49.534;6.378;2023-12-28T09:29:57;9.80;99.90
53776;DHT22;44276;49.534;6.378;2023-12-28T09:32:26;9.80;99.90
53776;DHT22;44276;49.534;6.378;2023-12-28T09:34:55;9.90;99.90
53776;DHT22;44276;49.534;6.378;2023-12-28T09:37:24;9.90;99.90
53776;DHT22;44276;49.534;6.378;2023-12-28T09:39:52;10.00;99.90
53776;DHT22;44276;49.534;6.378;2023-12-28T09:42:25;10.00;99.90
53776;DHT22;44276;49.534;6.378;2023-12-28T09:44:57;10.10;99.90
53776;DHT22;44276;49.534;6.378;2023-12-28T09:47:25;10.20;99.90
53776;DHT22;44276;49.534;6.378;2023-12-28T09:49:55;10.30;99.90
53776;DHT22;44276;49.534;6.378;2023-12-28T09:52:23;10.60;99.90
53776;DHT22;44276;49.534;6.378;2023-12-28T09:54:51;11.30;99.90
53776;DHT22;44276;49.534;6.378;2023-12-28T09:57:20;11.80;99.90
53776;DHT22;44276;49.534;6.378;2023-12-28T09:59:49;11.60;99.90
53776;DHT22;44276;49.534;6.378;2023-12-28T10:02:17;11.30;99.90
53776;DHT22;44276;49.534;6.378;2023-12-28T10:04:46;11.00;99.90
53776;DHT22;44276;49.534;6.378;2023-12-28T10:07:16;10.80;99.90
53776;DHT22;44276;49.534;6.378;2023-12-28T10:09:44;10.70;99.90
53776;DHT22;44276;49.534;6.378;2023-12-28T10:12:12;10.60;99.90
53776;DHT22;44276;49.534;6.378;2023-12-28T10:14:40;10.60;99.90
53776;DHT22;44276;49.534;6.378;2023-12-28T10:17:09;10.60;99.90
53776;DHT22;44276;49.534;6.378;2023-12-28T10:19:37;10.90;99.90
53776;DHT22;44276;49.534;6.378;2023-12-28T10:22:06;11.30;99.90
53776;DHT22;44276;49.534;6.378;2023-12-28T10:24:41;11.40;99.90
53776;DHT22;44276;49.534;6.378;2023-12-28T10:27:13;11.20;99.90
53776;DHT22;44276;49.534;6.378;2023-12-28T10:29:42;11.10;99.90
53776;DHT22;44276;49.534;6.378;2023-12-28T10:32:11;10.90;99.90
53776;DHT22;44276;49.534;6.378;2023-12-28T10:34:39;10.80;99.90
53776;DHT22;44276;49.534;6.378;2023-12-28T10:37:08;10.70;99.90
53776;DHT22;44276;49.534;6.378;2023-12-28T10:39:41;10.60;99.90
53776;DHT22;44276;49.534;6.378;2023-12-28T10:42:16;10.60;99.90
53776;DHT22;44276;49.534;6.378;2023-12-28T10:44:55;10.60;99.90
53776;DHT22;44276;49.534;6.378;2023-12-28T10:47:32;10.80;99.90
53776;DHT22;44276;49.534;6.378;2023-12-28T10:50:04;10.80;99.90
53776;DHT22;44276;49.534;6.378;2023-12-28T10:52:34;10.80;99.90
53776;DHT22;44276;49.534;6.378;2023-12-28T10:55:24;10.70;99.90
53776;DHT22;44276;49.534;6.378;2023-12-28T10:58:10;10.60;99.90
53776;DHT22;44276;49.534;6.378;2023-12-28T11:00:47;10.40;99.90
53776;DHT22;44276;49.534;6.378;2023-12-28T11:03:28;10.40;99.90
53776;DHT22;44276;49.534;6.378;2023-12-28T11:06:03;10.40;99.90
53776;DHT22;44276;49.534;6.378;2023-12-28T11:08:32;10.30;99.90
53776;DHT22;44276;49.534;6.378;2023-12-28T11:11:05;10.30;99.90
53776;DHT22;44276;49.534;6.378;2023-12-28T11:13:35;10.40;99.90
53776;DHT22;44276;49.534;6.378;2023-12-28T11:16:05;10.50;99.90
53776;DHT22;44276;49.534;6.378;2023-12-28T11:18:34;10.60;99.90
53776;DHT22;44276;49.534;6.378;2023-12-28T11:21:03;10.50;99.90
53776;DHT22;44276;49.534;6.378;2023-12-28T11:23:34;10.50;99.90
53776;DHT22;44276;49.534;6.378;2023-12-28T11:26:15;10.40;99.90
53776;DHT22;44276;49.534;6.378;2023-12-28T11:28:44;10.40;99.90
53776;DHT22;44276;49.534;6.378;2023-12-28T11:31:14;10.40;99.90
53776;DHT22;44276;49.534;6.378;2023-12-28T11:33:44;10.30;99.90
53776;DHT22;44276;49.534;6.378;2023-12-28T11:36:21;10.20;99.90
53776;DHT22;44276;49.534;6.378;2023-12-28T11:38:53;10.00;99.90
53776;DHT22;44276;49.534;6.378;2023-12-28T11:41:26;9.90;99.90
53776;DHT22;44276;49.534;6.378;2023-12-28T11:43:55;9.80;99.90
53776;DHT22;44276;49.534;6.378;2023-12-28T11:46:23;9.80;99.90
53776;DHT22;44276;49.534;6.378;2023-12-28T11:49:03;9.70;99.90
53776;DHT22;44276;49.534;6.378;2023-12-28T11:51:32;9.80;99.90
53776;DHT22;44276;49.534;6.378;2023-12-28T11:54:03;9.90;99.90
53776;DHT22;44276;49.534;6.378;2023-12-28T11:56:32;10.00;99.90
53776;DHT22;44276;49.534;6.378;2023-12-28T11:59:01;10.10;99.90
53776;DHT22;44276;49.534;6.378;2023-12-28T12:01:29;10.50;99.90
53776;DHT22;44276;49.534;6.378;2023-12-28T12:03:57;10.80;99.90
53776;DHT22;44276;49.534;6.378;2023-12-28T12:06:25;10.80;99.90
53776;DHT22;44276;49.534;6.378;2023-12-28T12:08:54;10.70;99.90
53776;DHT22;44276;49.534;6.378;2023-12-28T12:11:24;10.70;99.90
53776;DHT22;44276;49.534;6.378;2023-12-28T12:13:55;10.70;99.90
53776;DHT22;44276;49.534;6.378;2023-12-28T12:16:23;10.70;99.90
53776;DHT22;44276;49.534;6.378;2023-12-28T12:18:53;10.70;99.90
53776;DHT22;44276;49.534;6.378;2023-12-28T12:21:23;10.70;99.90
53776;DHT22;44276;49.534;6.378;2023-12-28T12:23:52;10.60;99.90
53776;DHT22;44276;49.534;6.378;2023-12-28T12:26:20;10.60;99.90
53776;DHT22;44276;49.534;6.378;2023-12-28T12:28:48;10.70;99.90
53776;DHT22;44276;49.534;6.378;2023-12-28T12:31:18;10.60;99.90
53776;DHT22;44276;49.534;6.378;2023-12-28T12:33:47;10.70;99.90
53776;DHT22;44276;49.534;6.378;2023-12-28T12:36:18;10.70;99.90
53776;DHT22;44276;49.534;6.378;2023-12-28T12:38:48;10.70;99.90
53776;DHT22;44276;49.534;6.378;2023-12-28T12:41:16;10.70;99.90
53776;DHT22;44276;49.534;6.378;2023-12-28T12:43:45;10.90;99.90
53776;DHT22;44276;49.534;6.378;2023-12-28T12:46:14;11.10;99.90
53776;DHT22;44276;49.534;6.378;2023-12-28T12:48:54;11.30;99.90
53776;DHT22;44276;49.534;6.378;2023-12-28T12:51:23;11.50;99.90
53776;DHT22;44276;49.534;6.378;2023-12-28T12:53:56;11.40;99.90
53776;DHT22;44276;49.534;6.378;2023-12-28T12:56:25;11.30;99.90
53776;DHT22;44276;49.534;6.378;2023-12-28T12:58:54;11.20;99.90
53776;DHT22;44276;49.534;6.378;2023-12-28T13:01:23;11.20;99.90
53776;DHT22;44276;49.534;6.378;2023-12-28T13:03:53;11.30;99.90
53776;DHT22;44276;49.534;6.378;2023-12-28T13:06:21;11.30;99.90
53776;DHT22;44276;49.534;6.378;2023-12-28T13:08:50;11.30;99.90
53776;DHT22;44276;49.534;6.378;2023-12-28T13:11:18;11.30;99.90
53776;DHT22;44276;49.534;6.378;2023-12-28T13:13:51;11.20;99.90
53776;DHT22;44276;49.534;6.378;2023-12-28T13:16:19;11.10;99.90
53776;DHT22;44276;49.534;6.378;2023-12-28T13:18:47;10.90;99.90
53776;DHT22;44276;49.534;6.378;2023-12-28T13:21:17;11.00;99.90
53776;DHT22;44276;49.534;6.378;2023-12-28T13:23:45;10.80;99.90
53776;DHT22;44276;49.534;6.378;2023-12-28T13:26:13;10.50;99.90
53776;DHT22;44276;49.534;6.378;2023-12-28T13:28:41;10.30;99.90
53776;DHT22;44276;49.534;6.378;2023-12-28T13:31:10;10.30;99.90
53776;DHT22;44276;49.534;6.378;2023-12-28T13:33:39;10.50;99.90
53776;DHT22;44276;49.534;6.378;2023-12-28T13:36:07;10.50;99.90
53776;DHT22;44276;49.534;6.378;2023-12-28T13:38:37;10.50;99.90
53776;DHT22;44276;49.534;6.378;2023-12-28T13:41:05;10.50;99.90
53776;DHT22;44276;49.534;6.378;2023-12-28T13:43:33;10.40;99.90
53776;DHT22;44276;49.534;6.378;2023-12-28T13:46:02;10.40;99.90
53776;DHT22;44276;49.534;6.378;2023-12-28T13:48:31;10.30;99.90
53776;DHT22;44276;49.534;6.378;2023-12-28T13:51:00;10.30;99.90
53776;DHT22;44276;49.534;6.378;2023-12-28T13:53:28;10.20;99.90
53776;DHT22;44276;49.534;6.378;2023-12-28T13:55:57;10.20;99.90
53776;DHT22;44276;49.534;6.378;2023-12-28T13:58:25;10.20;99.90
53776;DHT22;44276;49.534;6.378;2023-12-28T14:00:54;10.30;99.90
53776;DHT22;44276;49.534;6.378;2023-12-28T14:03:25;10.40;99.90
53776;DHT22;44276;49.534;6.378;2023-12-28T14:05:53;10.40;99.90
53776;DHT22;44276;49.534;6.378;2023-12-28T14:08:21;10.30;99.90
53776;DHT22;44276;49.534;6.378;2023-12-28T14:10:49;10.40;99.90
53776;DHT22;44276;49.534;6.378;2023-12-28T14:13:19;10.30;99.90
53776;DHT22;44276;49.534;6.378;2023-12-28T14:15:47;10.30;99.90
53776;DHT22;44276;49.534;6.378;2023-12-28T14:18:16;10.20;99.90
53776;DHT22;44276;49.534;6.378;2023-12-28T14:20:44;10.20;99.90
53776;DHT22;44276;49.534;6.378;2023-12-28T14:23:13;10.20;99.90
53776;DHT22;44276;49.534;6.378;2023-12-28T14:25:42;10.20;99.90
53776;DHT22;44276;49.534;6.378;2023-12-28T14:28:11;10.30;99.90
53776;DHT22;44276;49.534;6.378;2023-12-28T14:30:41;10.30;99.90
53776;DHT22;44276;49.534;6.378;2023-12-28T14:33:12;10.30;99.90
53776;DHT22;44276;49.534;6.378;2023-12-28T14:35:41;10.30;99.90
53776;DHT22;44276;49.534;6.378;2023-12-28T14:38:13;10.30;99.90
53776;DHT22;44276;49.534;6.378;2023-12-28T14:40:41;10.20;99.90
53776;DHT22;44276;49.534;6.378;2023-12-28T14:43:09;10.20;99.90
53776;DHT22;44276;49.534;6.378;2023-12-28T14:45:37;10.20;99.90
53776;DHT22;44276;49.534;6.378;2023-12-28T14:48:07;10.20;99.90
53776;DHT22;44276;49.534;6.378;2023-12-28T14:50:35;10.30;99.90
53776;DHT22;44276;49.534;6.378;2023-12-28T14:53:03;10.30;99.90
53776;DHT22;44276;49.534;6.378;2023-12-28T14:55:33;10.30;99.90
53776;DHT22;44276;49.534;6.378;2023-12-28T14:58:01;10.20;99.90
53776;DHT22;44276;49.534;6.378;2023-12-28T15:00:30;10.00;99.90
53776;DHT22;44276;49.534;6.378;2023-12-28T15:02:58;10.00;99.90
53776;DHT22;44276;49.534;6.378;2023-12-28T15:05:27;10.10;99.90
53776;DHT22;44276;49.534;6.378;2023-12-28T15:07:56;10.20;99.90
53776;DHT22;44276;49.534;6.378;2023-12-28T15:10:24;10.20;99.90
53776;DHT22;44276;49.534;6.378;2023-12-28T15:12:53;10.20;99.90
53776;DHT22;44276;49.534;6.378;2023-12-28T15:15:23;10.10;99.90
53776;DHT22;44276;49.534;6.378;2023-12-28T15:17:52;10.10;99.90
53776;DHT22;44276;49.534;6.378;2023-12-28T15:20:21;10.10;99.90
53776;DHT22;44276;49.534;6.378;2023-12-28T15:22:52;10.10;99.90
53776;DHT22;44276;49.534;6.378;2023-12-28T15:25:21;10.10;99.90
53776;DHT22;44276;49.534;6.378;2023-12-28T15:27:49;10.10;99.90
53776;DHT22;44276;49.534;6.378;2023-12-28T15:30:17;10.10;99.90
53776;DHT22;44276;49.534;6.378;2023-12-28T15:32:46;10.00;99.90
53776;DHT22;44276;49.534;6.378;2023-12-28T15:35:15;9.90;99.90
53776;DHT22;44276;49.534;6.378;2023-12-28T15:37:43;9.90;99.90
53776;DHT22;44276;49.534;6.378;2023-12-28T15:40:13;9.90;99.90
53776;DHT22;44276;49.534;6.378;2023-12-28T15:42:41;9.90;99.90
53776;DHT22;44276;49.534;6.378;2023-12-28T15:45:12;9.70;99.90
53776;DHT22;44276;49.534;6.378;2023-12-28T15:47:40;9.60;99.90
53776;DHT22;44276;49.534;6.378;2023-12-28T15:50:08;9.50;99.90
53776;DHT22;44276;49.534;6.378;2023-12-28T15:52:36;9.50;99.90